Time;durP1;ratioP1;P1;durP2;ratioP2;P2;SDS_P1;SDS_P2;PMS_P1;PMS_P2;Temp;Humidity;BMP_temperature;BMP_pressure;BME280_temperature;BME280_humidity;BME280_pressure;Samples;Min_cycle;Max_cycle;Signal;HPM_P1;HPM_P2
2022/07/23 00:02:24;;;;;;;3.58;1.00;;;;;;;14.76;86.27;101577.56;4953594;29;20233;-46
2022/07/23 00:04:49;;;;;;;4.78;1.08;;;;;;;14.80;86.54;101575.59;4953505;29;20175;-46
2022/07/23 00:07:15;;;;;;;5.95;1.23;;;;;;;14.87;86.14;101574.41;4953544;29;20187;-46
2022/07/23 00:09:40;;;;;;;2.50;1.10;;;;;;;14.74;85.92;101592.94;4953489;29;20618;-46
2022/07/23 00:12:06;;;;;;;4.65;0.93;;;;;;;14.73;86.07;101585.78;4953777;29;20663;-45
2022/07/23 00:14:31;;;;;;;4.47;0.95;;;;;;;14.81;86.19;101575.53;4952960;29;20175;-46
2022/07/23 00:16:57;;;;;;;3.38;0.90;;;;;;;14.79;86.14;101561.22;4953591;29;20182;-45
2022/07/23 00:19:22;;;;;;;3.15;0.90;;;;;;;14.81;86.22;101574.66;4953451;28;20203;-46
2022/07/23 00:21:48;;;;;;;2.00;0.88;;;;;;;14.86;85.48;101572.63;4936165;29;20269;-45
2022/07/23 00:24:13;;;;;;;2.88;1.00;;;;;;;14.91;84.91;101575.13;4951870;29;20194;-46
2022/07/23 00:26:39;;;;;;;1.58;0.85;;;;;;;14.91;84.82;101569.72;4952790;29;20178;-45
2022/07/23 00:29:05;;;;;;;5.38;1.30;;;;;;;14.88;85.01;101564.47;4953114;29;20237;-47
2022/07/23 00:31:30;;;;;;;1.55;0.80;;;;;;;14.96;84.84;101567.72;4967914;28;20554;-47
2022/07/23 00:33:56;;;;;;;5.10;1.02;;;;;;;14.78;85.46;101558.59;4952736;29;20238;-47
2022/07/23 00:36:23;;;;;;;3.55;0.90;;;;;;;14.87;85.71;101569.00;4953372;29;20828;-46
2022/07/23 00:38:49;;;;;;;6.20;1.13;;;;;;;14.67;86.20;101572.56;4936255;29;20751;-47
2022/07/23 00:41:15;;;;;;;3.22;0.98;;;;;;;14.90;85.76;101578.78;4935192;29;20755;-46
2022/07/23 00:43:41;;;;;;;6.15;1.23;;;;;;;14.84;85.36;101563.72;4967316;28;20647;-46
2022/07/23 00:46:06;;;;;;;4.65;1.40;;;;;;;14.69;86.02;101559.88;4952907;29;20234;-47
2022/07/23 00:48:32;;;;;;;5.28;0.98;;;;;;;14.55;86.41;101563.19;4953135;29;20203;-46
2022/07/23 00:50:57;;;;;;;6.38;1.13;;;;;;;14.77;86.11;101562.25;4952662;29;20199;-46
2022/07/23 00:53:24;;;;;;;2.38;1.27;;;;;;;14.71;86.11;101568.78;4967480;28;20179;-46
2022/07/23 00:55:50;;;;;;;4.63;1.10;;;;;;;14.70;86.61;101572.44;4952124;28;20181;-47
2022/07/23 00:58:16;;;;;;;4.13;1.20;;;;;;;14.64;86.18;101570.00;4952428;29;20575;-46
2022/07/23 01:00:42;;;;;;;4.85;1.05;;;;;;;14.68;86.63;101562.66;4952708;29;20211;-47
2022/07/23 01:03:08;;;;;;;3.15;1.17;;;;;;;14.75;86.52;101567.69;4952325;29;20807;-47
2022/07/23 01:05:34;;;;;;;2.17;0.90;;;;;;;14.70;86.45;101569.72;4952912;29;20694;-46
2022/07/23 01:08:00;;;;;;;3.30;1.10;;;;;;;14.72;86.81;101572.38;4952953;29;20211;-48
2022/07/23 01:10:32;;;;;;;2.45;1.13;;;;;;;14.66;86.63;101569.94;4935001;29;20205;-45
2022/07/23 01:12:59;;;;;;;3.25;1.00;;;;;;;14.69;86.98;101561.69;4952656;29;20893;-46
2022/07/23 01:15:25;;;;;;;3.92;1.10;;;;;;;14.74;86.65;101560.56;4934977;29;20187;-48
2022/07/23 01:17:51;;;;;;;3.92;1.13;;;;;;;14.83;86.05;101568.25;4952649;29;20178;-46
2022/07/23 01:20:17;;;;;;;4.78;1.00;;;;;;;14.79;85.83;101568.44;4935378;29;20697;-47
2022/07/23 01:22:43;;;;;;;3.20;1.10;;;;;;;14.64;86.37;101553.81;4967306;28;20251;-45
2022/07/23 01:25:09;;;;;;;5.10;1.25;;;;;;;14.60;86.45;101550.34;4966571;28;20221;-47
2022/07/23 01:27:36;;;;;;;1.85;0.82;;;;;;;14.55;86.84;101557.78;4934945;29;20233;-47
2022/07/23 01:30:05;;;;;;;2.80;0.93;;;;;;;14.55;86.92;101565.88;4935393;29;20286;-44
2022/07/23 01:32:31;;;;;;;7.55;1.08;;;;;;;14.56;86.94;101556.84;4951103;29;20178;-46
2022/07/23 01:34:57;;;;;;;6.15;1.33;;;;;;;14.66;87.08;101557.31;4929742;29;20274;-46
2022/07/23 01:37:22;;;;;;;3.17;1.35;;;;;;;14.61;86.77;101548.56;4952403;29;20598;-46
2022/07/23 01:39:48;;;;;;;4.10;1.02;;;;;;;14.61;86.63;101544.03;4934683;29;20281;-46
2022/07/23 01:42:14;;;;;;;3.72;1.55;;;;;;;14.65;86.41;101538.50;4949282;28;20655;-47
2022/07/23 01:44:40;;;;;;;6.95;1.30;;;;;;;14.45;85.93;101544.72;4942662;28;20182;-46
2022/07/23 01:47:09;;;;;;;5.53;1.70;;;;;;;14.59;86.08;101542.34;4953998;28;20194;-46
2022/07/23 01:49:34;;;;;;;5.78;1.45;;;;;;;14.58;85.91;101543.28;4953660;28;20264;-46
2022/07/23 01:52:32;;;;;;;6.47;1.35;;;;;;;14.61;86.40;101540.47;4956988;28;20194;-47
2022/07/23 01:54:57;;;;;;;5.15;1.13;;;;;;;14.69;86.00;101540.13;4970943;28;20184;-48
2022/07/23 01:57:23;;;;;;;7.72;1.55;;;;;;;14.63;85.92;101549.38;4971222;28;20174;-45
2022/07/23 01:59:49;;;;;;;5.25;1.45;;;;;;;14.61;85.72;101560.22;4953114;28;20232;-49
2022/07/23 02:02:18;;;;;;;4.85;1.40;;;;;;;14.74;85.57;101552.47;4953545;28;20245;-47
2022/07/23 02:04:43;;;;;;;5.53;1.20;;;;;;;14.48;86.42;101550.00;4970438;28;20177;-46
2022/07/23 02:07:09;;;;;;;5.55;1.33;;;;;;;14.43;86.68;101547.50;4971231;28;20190;-48
2022/07/23 02:09:34;;;;;;;6.35;1.10;;;;;;;14.49;87.42;101540.97;4970736;28;20225;-46
2022/07/23 02:12:00;;;;;;;3.60;1.40;;;;;;;14.47;87.37;101529.38;4953756;28;20225;-47
2022/07/23 02:14:26;;;;;;;5.32;1.70;;;;;;;14.48;87.90;101540.09;4953020;28;20184;-48
2022/07/23 02:16:52;;;;;;;4.57;1.20;;;;;;;14.49;88.05;101524.78;4953788;28;20181;-47
2022/07/23 02:19:17;;;;;;;4.53;1.20;;;;;;;14.45;87.80;101533.94;4953415;28;20236;-47
2022/07/23 02:21:43;;;;;;;5.05;1.60;;;;;;;14.54;87.95;101525.44;4970852;28;20178;-46
2022/07/23 02:24:08;;;;;;;4.07;1.45;;;;;;;14.45;87.94;101528.56;4922541;29;20624;-47
2022/07/23 02:26:34;;;;;;;8.90;1.92;;;;;;;14.32;88.37;101515.63;4934725;29;20195;-46
2022/07/23 02:29:03;;;;;;;6.05;1.27;;;;;;;14.39;88.34;101530.59;4934363;28;20206;-49
2022/07/23 02:31:29;;;;;;;8.95;1.60;;;;;;;14.24;88.42;101527.66;4965933;28;20193;-49
2022/07/23 02:33:56;;;;;;;4.40;1.50;;;;;;;14.33;88.32;101508.41;4933830;29;20187;-49
2022/07/23 02:36:22;;;;;;;3.50;1.10;;;;;;;14.37;88.13;101512.72;4966679;28;20635;-48
2022/07/23 02:38:48;;;;;;;5.65;1.42;;;;;;;14.35;88.41;101502.00;4966017;28;20179;-50
2022/07/23 02:41:14;;;;;;;6.45;1.33;;;;;;;14.48;88.33;101505.03;4934188;29;20194;-50
2022/07/23 02:43:41;;;;;;;4.20;1.55;;;;;;;14.39;88.50;101509.00;4934000;29;20223;-48
2022/07/23 02:46:07;;;;;;;4.80;1.20;;;;;;;14.33;88.65;101503.88;4966307;28;20202;-49
2022/07/23 02:48:33;;;;;;;10.23;1.63;;;;;;;14.37;89.28;101521.69;4933653;29;20209;-51
2022/07/23 02:50:59;;;;;;;4.32;1.50;;;;;;;14.42;89.30;101519.66;4966221;28;20694;-49
2022/07/23 02:53:30;;;;;;;6.30;1.33;;;;;;;14.32;89.01;101514.72;4965881;28;20715;-48
2022/07/23 02:55:56;;;;;;;6.63;1.48;;;;;;;14.11;90.06;101511.13;4966330;28;20274;-46
2022/07/23 02:58:22;;;;;;;6.00;1.25;;;;;;;14.14;90.36;101506.47;4965919;28;20545;-48
2022/07/23 03:00:48;;;;;;;7.78;1.60;;;;;;;14.25;90.19;101506.03;4934297;29;20195;-47
2022/07/23 03:03:13;;;;;;;2.45;1.40;;;;;;;14.19;90.26;101498.19;4952479;28;20183;-46
2022/07/23 03:05:39;;;;;;;6.95;1.35;;;;;;;14.15;90.48;101505.56;4937238;29;20221;-46
2022/07/23 03:08:04;;;;;;;3.55;1.20;;;;;;;14.24;90.32;101506.97;4969484;28;20179;-47
2022/07/23 03:10:33;;;;;;;5.78;1.30;;;;;;;14.20;90.26;101499.97;4937271;29;20213;-48
2022/07/23 03:12:59;;;;;;;6.78;1.67;;;;;;;14.29;90.06;101509.47;4954219;29;20174;-48
2022/07/23 03:15:24;;;;;;;4.95;1.13;;;;;;;14.35;89.57;101510.09;4969100;28;20238;-48
2022/07/23 03:17:50;;;;;;;4.75;1.23;;;;;;;14.30;89.62;101520.19;4937099;29;20611;-49
2022/07/23 03:20:15;;;;;;;6.00;1.30;;;;;;;14.29;89.88;101514.88;4954361;29;20191;-47
2022/07/23 03:22:41;;;;;;;5.85;1.58;;;;;;;14.28;89.78;101507.69;4936794;29;20208;-46
2022/07/23 03:25:07;;;;;;;4.03;1.42;;;;;;;14.16;90.25;101514.50;4936488;29;20198;-47
2022/07/23 03:27:34;;;;;;;3.78;1.63;;;;;;;14.16;90.52;101523.47;4968804;28;20186;-49
2022/07/23 03:30:00;;;;;;;3.47;1.40;;;;;;;14.24;90.50;101517.75;4936515;29;20214;-46
2022/07/23 03:32:26;;;;;;;8.30;1.70;;;;;;;14.21;90.51;101512.47;4954228;28;20175;-46
2022/07/23 03:34:52;;;;;;;3.17;1.52;;;;;;;14.33;90.74;101525.44;4953732;28;20662;-47
2022/07/23 03:37:18;;;;;;;5.30;1.67;;;;;;;14.24;90.42;101519.59;4967140;28;20653;-48
2022/07/23 03:39:45;;;;;;;4.63;1.55;;;;;;;14.05;91.04;101511.38;4955451;28;20652;-47
2022/07/23 03:42:10;;;;;;;6.72;1.55;;;;;;;14.10;91.42;101518.34;4931726;29;20190;-47
2022/07/23 03:44:36;;;;;;;7.68;1.60;;;;;;;14.19;91.61;101507.19;4939689;28;20186;-48
2022/07/23 03:47:03;;;;;;;4.45;1.23;;;;;;;14.30;91.12;101498.63;4920377;29;20643;-45
2022/07/23 03:49:29;;;;;;;9.70;1.65;;;;;;;14.13;91.29;101501.16;4936639;29;20210;-46
2022/07/23 03:51:54;;;;;;;4.22;1.40;;;;;;;14.12;91.81;101505.66;4953796;29;20561;-46
2022/07/23 03:54:20;;;;;;;3.70;1.65;;;;;;;14.05;92.04;101504.19;4935745;29;20179;-45
2022/07/23 03:56:46;;;;;;;3.95;1.40;;;;;;;14.09;92.27;101508.50;4936604;29;20815;-46
2022/07/23 03:59:11;;;;;;;9.45;1.92;;;;;;;14.11;92.56;101506.63;4953620;28;20167;-46
2022/07/23 04:01:37;;;;;;;4.60;1.63;;;;;;;14.22;92.62;101498.06;4936406;29;20175;-47
2022/07/23 04:04:03;;;;;;;8.20;1.83;;;;;;;14.13;92.25;101501.16;4935927;29;20175;-45
2022/07/23 04:06:29;;;;;;;4.72;1.60;;;;;;;14.17;92.27;101502.81;4936372;29;20745;-46
2022/07/23 04:08:56;;;;;;;4.57;1.60;;;;;;;14.20;92.29;101498.13;4936196;28;20225;-46
2022/07/23 04:11:22;;;;;;;4.55;1.65;;;;;;;14.17;91.83;101500.97;4935693;29;20191;-46
2022/07/23 04:13:47;;;;;;;9.20;1.80;;;;;;;14.22;91.86;101500.78;4935346;28;20585;-47
2022/07/23 04:16:13;;;;;;;4.78;1.63;;;;;;;14.22;91.83;101503.47;4935262;29;20243;-47
2022/07/23 04:18:38;;;;;;;4.55;1.20;;;;;;;14.35;91.60;101496.59;4936501;29;20187;-46
2022/07/23 04:21:13;;;;;;;3.67;2.00;;;;;;;14.38;91.63;101490.19;4936375;29;20245;-47
2022/07/23 04:23:38;;;;;;;4.88;1.55;;;;;;;14.28;91.51;101478.06;4952887;29;20215;-47
2022/07/23 04:26:05;;;;;;;7.40;1.65;;;;;;;14.42;91.05;101481.91;4968367;28;20191;-49
2022/07/23 04:28:31;;;;;;;4.93;1.38;;;;;;;14.50;90.56;101486.09;4936241;29;20202;-45
2022/07/23 04:30:57;;;;;;;5.40;1.67;;;;;;;14.63;90.33;101487.34;4936258;29;20315;-47
2022/07/23 04:33:23;;;;;;;5.05;1.75;;;;;;;14.71;90.04;101482.47;4935747;29;20667;-46
2022/07/23 04:35:51;;;;;;;7.70;1.58;;;;;;;14.56;89.91;101478.66;4968123;28;20186;-46
2022/07/23 04:38:20;;;;;;;4.95;1.40;;;;;;;14.62;90.62;101485.56;4935968;29;20258;-47
2022/07/23 04:40:48;;;;;;;7.30;1.50;;;;;;;14.77;89.99;101482.19;4935856;29;20214;-45
2022/07/23 04:43:13;;;;;;;5.75;1.48;;;;;;;14.73;89.79;101483.28;4952132;29;20175;-47
2022/07/23 04:45:48;;;;;;;8.85;1.80;;;;;;;14.76;89.26;101491.25;4935824;29;20276;-47
2022/07/23 04:48:14;;;;;;;4.18;1.23;;;;;;;14.86;89.09;101493.50;4967830;28;20662;-46
2022/07/23 04:50:40;;;;;;;5.38;1.63;;;;;;;14.70;89.24;101499.59;4935863;29;20265;-46
2022/07/23 04:53:13;;;;;;;9.18;1.52;;;;;;;14.82;89.81;101499.06;4952134;29;20179;-47
2022/07/23 04:55:39;;;;;;;4.63;1.58;;;;;;;14.88;89.00;101495.19;4935847;29;20190;-47
2022/07/23 04:58:05;;;;;;;4.28;1.30;;;;;;;14.95;88.84;101504.75;4953138;29;20201;-48
2022/07/23 05:00:30;;;;;;;9.30;2.03;;;;;;;14.83;88.85;101502.63;4967473;28;20309;-48
2022/07/23 05:02:56;;;;;;;4.82;1.50;;;;;;;14.87;88.86;101504.25;4952307;29;20258;-48
2022/07/23 05:05:22;;;;;;;8.23;1.52;;;;;;;14.81;88.88;101518.88;4967203;28;20209;-49
2022/07/23 05:07:48;;;;;;;5.60;1.30;;;;;;;14.78;88.94;101512.72;4935423;29;20298;-48
2022/07/23 05:10:14;;;;;;;5.22;1.65;;;;;;;14.74;89.36;101525.50;4935431;29;20210;-47
2022/07/23 05:12:39;;;;;;;9.75;1.48;;;;;;;14.69;89.65;101534.72;4952744;29;20627;-49
2022/07/23 05:15:05;;;;;;;8.65;1.80;;;;;;;14.67;90.30;101524.03;4934965;29;20175;-47
2022/07/23 05:17:30;;;;;;;4.20;1.55;;;;;;;14.69;90.18;101532.91;4967173;28;20175;-47
2022/07/23 05:19:56;;;;;;;3.40;1.30;;;;;;;14.73;89.75;101522.84;4934953;29;20195;-45
2022/07/23 05:22:22;;;;;;;7.18;1.48;;;;;;;14.77;89.59;101529.88;4935252;29;20294;-45
2022/07/23 05:24:47;;;;;;;6.18;1.85;;;;;;;14.81;90.19;101537.75;4934292;29;20206;-45
2022/07/23 05:27:13;;;;;;;5.25;1.80;;;;;;;14.75;89.92;101531.75;4967160;28;20250;-46
2022/07/23 05:29:38;;;;;;;3.13;1.30;;;;;;;14.58;89.58;101530.69;4934960;29;20289;-45
2022/07/23 05:32:04;;;;;;;4.63;1.55;;;;;;;14.60;90.12;101522.53;4935146;29;20234;-45
2022/07/23 05:34:32;;;;;;;7.03;1.73;;;;;;;14.55;90.42;101522.72;4966290;28;20206;-46
2022/07/23 05:36:58;;;;;;;3.50;1.38;;;;;;;14.71;90.15;101531.00;4966347;28;20557;-45
2022/07/23 05:39:24;;;;;;;6.15;1.73;;;;;;;14.62;90.11;101532.28;4952154;29;20202;-46
2022/07/23 05:41:49;;;;;;;5.30;1.55;;;;;;;14.62;90.92;101521.50;4952200;29;20194;-48
2022/07/23 05:44:16;;;;;;;7.57;1.88;;;;;;;14.79;90.56;101520.75;4966276;28;20210;-45
2022/07/23 05:46:43;;;;;;;6.15;1.77;;;;;;;14.95;90.08;101511.97;4934957;29;20273;-46
2022/07/23 05:49:13;;;;;;;5.68;1.60;;;;;;;14.93;89.89;101506.63;4934371;29;20751;-46
2022/07/23 05:52:03;;;;;;;5.47;1.67;;;;;;;15.03;89.46;101512.50;4948325;29;20186;-49
2022/07/23 05:54:42;;;;;;;6.55;1.75;;;;;;;14.95;90.40;101528.16;4966133;28;20261;-48
2022/07/23 05:57:08;;;;;;;6.28;1.98;;;;;;;15.07;89.81;101513.25;4935050;29;20255;-51
2022/07/23 05:59:34;;;;;;;8.18;1.85;;;;;;;15.06;88.54;101524.97;4950439;28;20206;-49
2022/07/23 06:01:59;;;;;;;5.75;1.58;;;;;;;15.05;88.56;101524.09;4934702;29;20210;-48
2022/07/23 06:04:26;;;;;;;2.97;1.10;;;;;;;15.21;88.46;101526.97;4934066;29;20253;-48
2022/07/23 06:07:12;;;;;;;3.97;1.58;;;;;;;15.08;88.77;101521.25;4934684;29;20582;-48
2022/07/23 06:09:37;;;;;;;3.05;1.35;;;;;;;15.00;89.52;101515.38;4934504;29;20215;-48
2022/07/23 06:12:03;;;;;;;2.70;1.27;;;;;;;15.18;88.88;101527.13;4951885;29;20258;-48
2022/07/23 06:14:30;;;;;;;6.82;1.65;;;;;;;15.30;88.20;101523.84;4934084;29;20210;-49
2022/07/23 06:16:57;;;;;;;3.75;1.08;;;;;;;15.27;88.38;101506.94;4934587;29;20175;-49
2022/07/23 06:19:22;;;;;;;4.72;1.48;;;;;;;15.37;87.74;101510.91;4934443;29;20221;-47
2022/07/23 06:21:48;;;;;;;4.28;1.13;;;;;;;15.46;87.12;101507.81;4934053;29;20182;-48
2022/07/23 06:24:16;;;;;;;3.90;1.58;;;;;;;15.50;86.01;101516.63;4933476;29;20218;-49
2022/07/23 06:26:41;;;;;;;12.27;1.70;;;;;;;15.14;85.46;101520.13;4966102;28;20217;-50
2022/07/23 06:29:07;;;;;;;4.80;1.38;;;;;;;15.20;86.48;101519.84;4951756;29;20199;-48
2022/07/23 06:31:33;;;;;;;3.72;1.25;;;;;;;15.34;85.53;101511.94;4951910;28;20239;-50
2022/07/23 06:33:59;;;;;;;3.42;1.20;;;;;;;15.50;85.31;101506.69;4950907;28;20394;-49
2022/07/23 06:36:24;;;;;;;4.07;1.13;;;;;;;15.20;84.08;101504.50;4951824;29;20352;-49
2022/07/23 06:38:50;;;;;;;1.88;0.90;;;;;;;15.36;83.55;101507.34;4968875;28;20173;-48
2022/07/23 06:41:15;;;;;;;4.93;1.35;;;;;;;15.36;83.35;101506.47;4969726;28;20666;-49
2022/07/23 06:43:41;;;;;;;5.18;1.27;;;;;;;15.38;82.85;101520.78;4969574;28;20166;-48
2022/07/23 06:46:08;;;;;;;3.15;1.63;;;;;;;15.36;83.83;101519.97;4938047;29;20538;-51
2022/07/23 06:48:35;;;;;;;6.07;1.60;;;;;;;15.37;83.99;101528.03;4970072;28;20226;-49
2022/07/23 06:51:02;;;;;;;6.75;1.95;;;;;;;15.29;84.34;101523.94;4920994;29;20199;-50
2022/07/23 06:53:27;;;;;;;7.55;1.85;;;;;;;15.04;84.60;101520.53;4969319;28;20657;-48
2022/07/23 06:55:53;;;;;;;2.80;1.30;;;;;;;15.10;85.11;101532.88;4954254;29;20195;-50
2022/07/23 06:58:19;;;;;;;5.18;1.40;;;;;;;15.17;85.65;101523.53;4954400;28;20171;-49
2022/07/23 07:00:44;;;;;;;4.40;1.40;;;;;;;15.21;85.34;101511.63;4937956;29;20698;-52
2022/07/23 07:03:10;;;;;;;6.60;1.58;;;;;;;15.10;85.33;101519.38;4953121;28;20187;-48
2022/07/23 07:05:35;;;;;;;7.72;1.90;;;;;;;15.34;84.88;101514.66;4954483;29;20635;-50
2022/07/23 07:08:01;;;;;;;2.15;1.20;;;;;;;15.26;84.41;101522.22;4954308;28;20174;-47
2022/07/23 07:10:26;;;;;;;8.25;1.77;;;;;;;15.27;84.76;101524.00;4936593;29;20214;-50
2022/07/23 07:12:52;;;;;;;5.43;1.42;;;;;;;15.36;85.38;101528.94;4954678;29;20274;-52
2022/07/23 07:15:17;;;;;;;7.43;1.90;;;;;;;15.44;83.77;101520.50;4954286;29;20539;-49
2022/07/23 07:17:43;;;;;;;4.63;1.40;;;;;;;15.36;83.53;101522.69;4954691;29;20194;-49
2022/07/23 07:20:09;;;;;;;2.70;1.20;;;;;;;15.46;84.21;101524.00;4954516;28;20203;-49
2022/07/23 07:22:35;;;;;;;5.88;1.33;;;;;;;15.30;84.19;101529.22;4954283;29;20175;-49
2022/07/23 07:25:00;;;;;;;5.13;1.13;;;;;;;15.44;83.55;101524.06;4952900;28;20254;-48
2022/07/23 07:27:26;;;;;;;3.65;1.48;;;;;;;15.29;83.36;101535.59;4954671;29;20242;-49
2022/07/23 07:29:52;;;;;;;5.75;1.70;;;;;;;15.40;83.62;101524.28;4954127;28;20217;-51
2022/07/23 07:32:17;;;;;;;3.25;1.60;;;;;;;15.50;82.86;101536.38;4956395;28;20175;-49
2022/07/23 07:34:43;;;;;;;3.72;1.20;;;;;;;15.35;83.32;101543.41;4973157;28;20177;-49
2022/07/23 07:37:08;;;;;;;5.35;1.55;;;;;;;15.13;83.82;101548.94;4973649;28;20194;-48
2022/07/23 07:39:34;;;;;;;5.03;1.50;;;;;;;15.12;84.42;101533.66;4963896;28;20209;-48
2022/07/23 07:41:59;;;;;;;3.08;1.13;;;;;;;15.07;84.36;101545.66;4953937;29;20179;-49
2022/07/23 07:44:25;;;;;;;1.75;0.90;;;;;;;15.02;84.13;101544.03;4953748;29;20175;-50
2022/07/23 07:46:50;;;;;;;4.13;1.45;;;;;;;15.00;84.93;101548.63;4954531;29;20186;-50
2022/07/23 07:49:19;;;;;;;3.90;1.25;;;;;;;14.85;85.09;101543.91;4952533;28;20482;-48
2022/07/23 07:51:45;;;;;;;6.38;1.42;;;;;;;14.74;85.70;101557.00;4953459;28;20230;-47
2022/07/23 07:54:11;;;;;;;5.25;1.45;;;;;;;14.90;85.85;101557.19;4954058;29;20704;-46
2022/07/23 07:56:37;;;;;;;4.47;1.45;;;;;;;15.02;86.68;101560.22;4954430;29;20194;-47
2022/07/23 07:59:02;;;;;;;7.63;1.50;;;;;;;15.11;85.99;101545.44;4953831;29;20190;-48
2022/07/23 08:01:28;;;;;;;6.15;1.30;;;;;;;15.04;85.82;101544.84;4954267;29;20167;-45
2022/07/23 08:03:53;;;;;;;5.78;1.63;;;;;;;15.07;86.16;101554.59;4953826;29;20179;-49
2022/07/23 08:06:19;;;;;;;4.00;1.02;;;;;;;15.38;86.56;101555.88;4954078;29;20185;-48
2022/07/23 08:08:44;;;;;;;4.07;1.40;;;;;;;15.46;86.29;101551.00;4936719;29;20576;-51
2022/07/23 08:11:10;;;;;;;5.50;1.38;;;;;;;15.48;84.61;101546.41;4953674;28;20577;-45
2022/07/23 08:13:35;;;;;;;9.45;1.80;;;;;;;15.76;83.47;101542.41;4953405;29;20167;-46
2022/07/23 08:16:01;;;;;;;5.43;1.48;;;;;;;15.70;82.92;101548.97;4953788;29;20209;-49
2022/07/23 08:18:26;;;;;;;2.20;1.13;;;;;;;15.93;82.00;101547.00;4953774;29;20171;-45
2022/07/23 08:20:52;;;;;;;5.85;1.58;;;;;;;16.44;80.71;101539.91;4953513;28;20214;-45
2022/07/23 08:23:19;;;;;;;7.20;1.45;;;;;;;16.69;79.64;101539.53;4953739;29;20209;-47
2022/07/23 08:25:45;;;;;;;3.00;1.00;;;;;;;16.93;78.79;101541.94;4953676;29;20281;-45
2022/07/23 08:28:12;;;;;;;2.42;1.00;;;;;;;16.78;78.23;101547.16;4953479;29;20182;-45
2022/07/23 08:30:39;;;;;;;3.22;1.15;;;;;;;16.84;78.66;101541.44;4953702;28;20588;-46
2022/07/23 08:33:13;;;;;;;6.18;1.65;;;;;;;16.57;77.99;101543.72;4953224;29;20175;-43
2022/07/23 08:35:46;;;;;;;2.22;1.13;;;;;;;16.74;78.93;101550.09;4953711;29;20178;-46
2022/07/23 08:38:14;;;;;;;3.45;1.00;;;;;;;16.98;77.11;101553.38;4936143;29;20175;-45
2022/07/23 08:40:45;;;;;;;4.22;1.13;;;;;;;16.81;76.30;101547.00;4953385;28;20283;-51
2022/07/23 08:43:16;;;;;;;5.53;1.50;;;;;;;16.85;76.27;101545.91;4953331;29;20206;-47
2022/07/23 08:45:44;;;;;;;4.13;1.10;;;;;;;17.06;76.38;101543.88;4952967;29;20251;-46
2022/07/23 08:48:15;;;;;;;4.65;1.23;;;;;;;17.08;76.00;101551.94;4953300;29;20175;-47
2022/07/23 08:50:50;;;;;;;2.78;0.80;;;;;;;17.17;75.68;101537.00;4953112;28;20214;-46
2022/07/23 08:53:17;;;;;;;3.65;1.10;;;;;;;17.70;74.86;101539.41;4953150;29;20664;-46
2022/07/23 08:55:51;;;;;;;3.85;1.38;;;;;;;17.98;73.84;101547.88;4936004;29;20635;-51
2022/07/23 08:58:17;;;;;;;5.15;0.90;;;;;;;17.56;73.85;101550.19;4952815;29;20179;-44
2022/07/23 09:00:43;;;;;;;2.13;0.80;;;;;;;17.99;72.72;101539.63;4952716;28;20213;-51
2022/07/23 09:03:21;;;;;;;8.00;1.13;;;;;;;17.94;72.31;101535.44;4952601;29;20219;-49
2022/07/23 09:05:48;;;;;;;2.28;0.93;;;;;;;17.53;71.93;101550.34;4952976;29;20198;-44
2022/07/23 09:08:22;;;;;;;2.17;0.73;;;;;;;17.71;71.92;101551.16;4952737;29;20539;-45
2022/07/23 09:10:56;;;;;;;4.57;1.05;;;;;;;18.02;70.63;101547.59;4952721;28;20702;-47
2022/07/23 09:13:27;;;;;;;3.85;0.93;;;;;;;17.91;70.89;101553.63;4953066;29;20231;-45
2022/07/23 09:15:55;;;;;;;3.15;0.90;;;;;;;17.60;70.37;101548.16;4952691;29;20345;-44
2022/07/23 09:18:38;;;;;;;5.55;1.00;;;;;;;17.92;69.77;101547.22;4952894;29;20265;-45
2022/07/23 09:21:12;;;;;;;3.13;0.88;;;;;;;18.07;70.09;101555.47;4952277;28;20221;-51
2022/07/23 09:23:44;;;;;;;6.30;1.23;;;;;;;17.91;71.32;101553.63;4951530;29;20210;-48
2022/07/23 09:26:22;;;;;;;3.00;0.88;;;;;;;17.94;71.00;101560.72;4952111;29;20187;-48
2022/07/23 09:28:57;;;;;;;4.72;0.90;;;;;;;17.63;72.03;101554.28;4951997;29;20714;-50
2022/07/23 09:31:24;;;;;;;1.88;0.68;;;;;;;17.74;72.18;101563.66;4952133;29;20638;-50
2022/07/23 09:33:50;;;;;;;1.30;0.57;;;;;;;17.74;72.38;101566.38;4951439;29;20658;-49
2022/07/23 09:36:26;;;;;;;3.00;0.90;;;;;;;17.39;73.94;101569.22;4951957;29;20206;-48
2022/07/23 09:38:52;;;;;;;4.90;0.75;;;;;;;16.77;75.79;101575.19;4952118;29;20178;-50
2022/07/23 09:41:17;;;;;;;1.65;0.40;;;;;;;16.50;75.39;101576.59;4952193;29;20197;-50
2022/07/23 09:43:44;;;;;;;4.18;0.70;;;;;;;17.03;74.83;101572.94;4951463;29;20281;-48
2022/07/23 09:46:24;;;;;;;3.38;0.65;;;;;;;17.51;74.38;101568.50;4952049;29;20628;-50
2022/07/23 09:48:56;;;;;;;5.72;1.20;;;;;;;17.67;74.16;101565.84;4951734;29;20221;-49
2022/07/23 09:51:31;;;;;;;3.38;0.90;;;;;;;17.66;72.35;101569.50;4951921;29;20198;-50
2022/07/23 09:53:57;;;;;;;3.58;0.80;;;;;;;17.77;72.84;101572.47;4950913;28;20232;-49
2022/07/23 09:56:23;;;;;;;2.30;0.77;;;;;;;17.40;74.50;101562.81;4951738;29;20175;-48
2022/07/23 09:59:12;;;;;;;2.17;0.60;;;;;;;17.20;75.01;101578.31;4951874;29;20254;-49
2022/07/23 10:01:38;;;;;;;1.98;0.70;;;;;;;17.39;75.63;101578.22;4951793;29;20167;-49
2022/07/23 10:04:06;;;;;;;1.38;0.50;;;;;;;17.46;74.85;101586.88;4950996;28;20186;-50
2022/07/23 10:06:52;;;;;;;1.92;0.80;;;;;;;17.57;73.33;101581.72;4952424;29;20318;-50
2022/07/23 10:09:42;;;;;;;1.40;0.65;;;;;;;17.83;73.48;101582.13;4940120;29;20226;-49
2022/07/23 10:15:05;;;;;;;3.17;1.02;;;;;;;17.65;73.94;101590.31;4969922;28;20205;-49
2022/07/23 10:17:32;;;;;;;2.67;0.90;;;;;;;17.70;73.55;101598.19;4955896;29;20683;-48
2022/07/23 10:19:57;;;;;;;4.25;1.17;;;;;;;17.89;74.03;101593.50;4955526;29;20689;-47
2022/07/23 10:22:26;;;;;;;2.08;0.80;;;;;;;18.08;72.75;101593.34;4955306;29;20179;-48
2022/07/23 10:24:54;;;;;;;6.40;1.10;;;;;;;17.79;73.27;101589.53;4955127;29;20566;-50
2022/07/23 10:27:54;;;;;;;4.80;2.72;;;;;;;18.17;73.09;101601.88;4970440;28;20265;-49
2022/07/23 10:30:49;;;;;;;5.07;1.85;;;;;;;18.62;72.82;101601.03;4955065;29;20262;-47
2022/07/23 10:33:39;;;;;;;2.50;0.98;;;;;;;18.85;69.88;101596.09;4954961;29;20294;-51
2022/07/23 10:36:09;;;;;;;1.83;0.90;;;;;;;19.52;67.24;101585.56;4955550;29;20174;-49
2022/07/23 10:38:48;;;;;;;3.08;0.80;;;;;;;19.43;66.83;101594.31;4955117;29;20516;-49
2022/07/23 10:41:13;;;;;;;3.28;1.00;;;;;;;18.82;67.02;101593.56;4955535;29;20571;-49
2022/07/23 10:43:39;;;;;;;4.03;0.82;;;;;;;18.25;69.72;101605.91;4954656;29;20186;-48
2022/07/23 10:49:26;;;;;;;7.57;1.35;;;;;;;17.51;72.43;101603.75;4954985;29;20561;-49
2022/07/23 10:52:13;;;;;;;3.00;0.82;;;;;;;17.53;72.29;101604.53;4937773;29;20552;-49
2022/07/23 10:54:50;;;;;;;2.03;0.82;;;;;;;17.44;72.41;101611.31;4954499;29;20185;-49
2022/07/23 10:57:17;;;;;;;3.95;1.27;;;;;;;17.33;71.72;101615.59;4955088;28;20644;-50
2022/07/23 11:00:14;;;;;;;4.70;1.13;;;;;;;17.12;70.04;101623.00;4954579;28;20692;-46
2022/07/23 11:02:41;;;;;;;4.95;0.90;;;;;;;16.74;71.95;101623.16;4937790;29;20183;-49
2022/07/23 11:05:13;;;;;;;4.20;1.20;;;;;;;16.47;73.94;101624.50;4954160;29;20171;-47
2022/07/23 11:08:03;;;;;;;3.83;1.10;;;;;;;16.44;74.62;101621.03;4954992;29;20222;-49
2022/07/23 11:10:37;;;;;;;3.42;1.00;;;;;;;16.73;74.77;101633.13;4954652;29;20218;-48
2022/07/23 11:13:21;;;;;;;2.35;1.02;;;;;;;16.62;74.37;101630.09;4937292;29;20460;-48
2022/07/23 11:16:05;;;;;;;2.40;0.90;;;;;;;16.68;74.14;101632.47;4954460;29;20194;-48
2022/07/23 11:18:40;;;;;;;3.78;0.98;;;;;;;16.73;74.18;101638.53;4954708;29;20197;-49
2022/07/23 11:21:20;;;;;;;1.67;0.85;;;;;;;16.96;73.42;101631.06;4954656;29;20289;-47
2022/07/23 11:24:09;;;;;;;2.90;1.10;;;;;;;16.86;73.44;101636.97;4953518;28;20179;-48
2022/07/23 11:29:24;;;;;;;4.88;1.13;;;;;;;16.77;74.48;101623.91;4954405;29;20307;-48
2022/07/23 11:32:05;;;;;;;3.75;1.05;;;;;;;16.99;74.87;101629.09;4937370;29;20182;-47
2022/07/23 11:34:30;;;;;;;2.97;1.00;;;;;;;17.30;74.37;101625.63;4953749;29;20175;-48
2022/07/23 11:36:56;;;;;;;6.90;1.20;;;;;;;17.51;73.57;101620.00;4954378;29;20182;-47
2022/07/23 11:39:25;;;;;;;4.47;1.33;;;;;;;17.58;72.56;101607.88;4968626;28;20289;-48